createdAt,value
2022-11-05T00:00:15.162Z,99822.47
2022-11-05T00:04:55.875Z,99830.78
2022-11-05T00:09:16.321Z,99827.25
2022-11-05T00:13:36.689Z,99829.75
2022-11-05T00:17:38.662Z,99826.16
2022-11-05T00:21:59.037Z,99821.25
2022-11-05T00:26:06.480Z,99825.78
2022-11-05T00:30:09.622Z,99831.84
2022-11-05T00:34:11.617Z,99827.72
2022-11-05T00:38:13.692Z,99832.34
2022-11-05T00:42:34.067Z,99836.44
2022-11-05T00:46:36.116Z,99824.53
2022-11-05T00:50:37.779Z,99801.44
2022-11-05T00:54:39.786Z,99799.50
2022-11-05T00:58:41.508Z,99811.38
2022-11-05T01:02:43.657Z,99812.28
2022-11-05T01:06:45.407Z,99813.25
2022-11-05T01:10:56.610Z,99808.13
2022-11-05T01:14:58.615Z,99807.72
2022-11-05T01:19:01.987Z,99812.97
2022-11-05T01:23:05.498Z,99818.31
2022-11-05T01:27:10.753Z,99799.69
2022-11-05T01:31:12.370Z,99809.53
2022-11-05T01:35:16.939Z,99801.13
2022-11-05T01:39:18.561Z,99807.19
2022-11-05T01:43:23.132Z,99806.56
2022-11-05T01:47:32.339Z,99819.66
2022-11-05T01:51:34.950Z,99822.38
2022-11-05T01:55:41.623Z,99833.69
2022-11-05T01:59:48.501Z,99824.91
2022-11-05T02:03:55.313Z,99820.22
2022-11-05T02:07:57.740Z,99817.91
2022-11-05T02:11:59.387Z,99810.53
2022-11-05T02:16:29.833Z,99804.81
2022-11-05T02:20:45.697Z,99808.91
2022-11-05T02:24:59.585Z,99803.94
2022-11-05T02:29:16.831Z,99803.75
2022-11-05T02:33:41.803Z,99803.84
2022-11-05T02:37:57.394Z,99814.16
2022-11-05T02:42:30.128Z,99801.81
2022-11-05T02:46:56.275Z,99806.13
2022-11-05T02:51:10.437Z,99808.19
2022-11-05T02:55:23.595Z,99812.25
2022-11-05T02:59:25.574Z,99818.41
2022-11-05T03:03:43.743Z,99830.03
2022-11-05T03:07:56.176Z,99831.06
2022-11-05T03:12:18.165Z,99830.13
2022-11-05T03:16:40.328Z,99826.66
2022-11-05T03:20:59.022Z,99825.06
2022-11-05T03:25:08.149Z,99833.84
2022-11-05T03:29:16.878Z,99836.66
2022-11-05T03:33:23.858Z,99836.75
2022-11-05T03:37:28.621Z,99846.47
2022-11-05T03:41:32.945Z,99835.47
2022-11-05T03:45:41.819Z,99832.19
2022-11-05T03:49:50.609Z,99831.97
2022-11-05T03:53:57.650Z,99841.53
2022-11-05T03:57:59.698Z,99843.13
2022-11-05T04:02:02.670Z,99856.59
2022-11-05T04:06:24.955Z,99868.63
2022-11-05T04:11:04.812Z,99869.41
2022-11-05T04:15:07.924Z,99883.50
2022-11-05T04:19:09.672Z,99896.03
2022-11-05T04:23:30.502Z,99908.09
2022-11-05T04:27:32.256Z,99901.25
2022-11-05T04:31:34.134Z,99893.97
2022-11-05T04:35:46.997Z,99906.50
2022-11-05T04:39:49.101Z,99908.84
2022-11-05T04:43:50.688Z,99908.81
2022-11-05T04:47:52.681Z,99906.28
2022-11-05T04:51:54.487Z,99914.44
2022-11-05T04:56:09.579Z,99937.06
2022-11-05T05:00:11.407Z,99954.94
2022-11-05T05:04:14.568Z,99962.13
2022-11-05T05:08:16.241Z,99971.25
2022-11-05T05:12:18.309Z,99981.88
2022-11-05T05:16:25.148Z,99987.28
2022-11-05T05:20:45.656Z,99996.38
2022-11-05T05:24:52.420Z,100007.47
2022-11-05T05:28:54.904Z,100022.28
2022-11-05T05:32:56.508Z,100026.19
2022-11-05T05:36:58.388Z,100033.44
2022-11-05T05:41:00.662Z,100042.97
2022-11-05T05:45:02.563Z,100043.81
2022-11-05T05:49:07.996Z,100050.72
2022-11-05T05:53:14.257Z,100056.91
2022-11-05T05:57:15.922Z,100046.44
2022-11-05T06:01:19.551Z,100040.75
2022-11-05T06:05:21.863Z,100048.38
2022-11-05T06:09:23.802Z,100053.59
2022-11-05T06:13:26.260Z,100043.03
2022-11-05T06:17:28.292Z,100038.31
2022-11-05T06:21:30.037Z,100055.72
2022-11-05T06:25:34.912Z,100066.75
2022-11-05T06:29:38.938Z,100067.63
2022-11-05T06:33:41.310Z,100065.59
2022-11-05T06:37:43.066Z,100076.63
2022-11-05T06:42:12.131Z,100066.34
2022-11-05T06:46:07.562Z,100078.47
2022-11-05T06:50:09.654Z,100071.66
2022-11-05T06:54:11.425Z,100068.28
2022-11-05T06:58:14.554Z,100070.53
2022-11-05T07:02:17.955Z,100056.47
2022-11-05T07:06:20.348Z,100062.69
2022-11-05T07:10:22.014Z,100059.06
2022-11-05T07:14:23.934Z,100065.22
2022-11-05T07:18:25.857Z,100073.16
2022-11-05T07:22:27.783Z,100066.16
2022-11-05T07:26:34.235Z,100066.38
2022-11-05T07:30:37.205Z,100073.38
2022-11-05T07:34:38.890Z,100071.16
2022-11-05T07:38:40.772Z,100073.03
2022-11-05T07:42:47.683Z,100084.53
2022-11-05T07:46:50.734Z,100070.41
2022-11-05T07:50:53.276Z,100088.69
2022-11-05T07:54:55.292Z,100091.03
2022-11-05T07:58:56.959Z,100081.50
2022-11-05T08:03:07.817Z,100086.13
2022-11-05T08:07:11.484Z,100087.56
2022-11-05T08:11:13.662Z,100093.41
2022-11-05T08:15:15.385Z,100104.72
2022-11-05T08:19:17.336Z,100108.25
2022-11-05T08:23:18.977Z,100103.34
2022-11-05T08:27:20.876Z,100102.31
2022-11-05T08:31:22.665Z,100101.47
2022-11-05T08:35:26.873Z,100093.44
2022-11-05T08:39:28.735Z,100097.75
2022-11-05T08:43:30.744Z,100099.66
2022-11-05T08:47:32.582Z,100102.84
2022-11-05T08:51:34.528Z,100111.28
2022-11-05T08:55:36.424Z,100096.50
2022-11-05T08:59:38.413Z,100105.75
2022-11-05T09:03:40.110Z,100102.50
2022-11-05T09:07:42.167Z,100117.09
2022-11-05T09:12:10.437Z,100127.94
2022-11-05T09:16:06.601Z,100117.94
2022-11-05T09:20:11.257Z,100119.44
2022-11-05T09:24:13.539Z,100129.63
2022-11-05T09:28:20.655Z,100128.72
2022-11-05T09:32:23.286Z,100136.59
2022-11-05T09:36:24.967Z,100137.84
2022-11-05T09:40:31.576Z,100137.09
2022-11-05T09:44:44.868Z,100135.31
2022-11-05T09:48:53.812Z,100152.56
2022-11-05T09:52:55.406Z,100158.72
2022-11-05T09:56:57.950Z,100157.44
2022-11-05T10:01:00.392Z,100169.97
2022-11-05T10:05:11.217Z,100167.44
2022-11-05T10:09:40.140Z,100175.88
2022-11-05T10:13:52.754Z,100177.84
2022-11-05T10:17:59.674Z,100195.41
2022-11-05T10:22:10.729Z,100192.81
2022-11-05T10:26:15.992Z,100206.78
2022-11-05T10:30:18.172Z,100207.16
2022-11-05T10:34:22.942Z,100202.66
2022-11-05T10:38:25.276Z,100205.56
2022-11-05T10:42:36.633Z,100204.34
2022-11-05T10:46:46.303Z,100212.59
2022-11-05T10:50:48.509Z,100226.44
2022-11-05T10:54:53.433Z,100235.63
2022-11-05T10:58:58.427Z,100226.81
2022-11-05T11:03:05.889Z,100241.81
2022-11-05T11:07:21.709Z,100242.19
2022-11-05T11:11:40.779Z,100245.16
2022-11-05T11:15:42.434Z,100253.91
2022-11-05T11:19:45.424Z,100252.72
2022-11-05T11:24:04.843Z,100249.16
2022-11-05T11:28:17.536Z,100252.34
2022-11-05T11:32:21.219Z,100240.81
2022-11-05T11:36:34.216Z,100250.16
2022-11-05T11:40:38.169Z,100257.00
2022-11-05T11:44:47.384Z,100257.66
2022-11-05T11:48:49.902Z,100257.66
2022-11-05T11:52:52.256Z,100266.84
2022-11-05T11:56:53.915Z,100268.91
2022-11-05T12:01:07.800Z,100276.44
2022-11-05T12:05:18.800Z,100274.03
2022-11-05T12:09:44.832Z,100284.13
2022-11-05T12:14:09.719Z,100296.22
2022-11-05T12:18:31.311Z,100318.59
2022-11-05T12:22:54.402Z,100320.84
2022-11-05T12:27:19.336Z,100329.13
2022-11-05T12:31:35.908Z,100335.22
2022-11-05T12:35:56.505Z,100341.25
2022-11-05T12:40:34.425Z,100345.44
2022-11-05T12:45:00.388Z,100349.50
2022-11-05T12:49:07.923Z,100355.25
2022-11-05T12:53:13.165Z,100348.31
2022-11-05T12:57:16.497Z,100356.88
2022-11-05T13:01:25.199Z,100355.25
2022-11-05T13:05:41.778Z,100363.38
2022-11-05T13:09:55.414Z,100360.59
2022-11-05T13:14:06.053Z,100369.47
2022-11-05T13:18:16.695Z,100369.16
2022-11-05T13:22:38.796Z,100369.63
2022-11-05T13:27:18.649Z,100363.22
2022-11-05T13:31:27.350Z,100368.22
2022-11-05T13:35:35.961Z,100365.78
2022-11-05T13:39:49.230Z,100374.88
2022-11-05T13:44:09.751Z,100385.47
2022-11-05T13:48:29.988Z,100403.13
2022-11-05T13:53:10.776Z,100413.03
2022-11-05T13:57:39.522Z,100422.06
2022-11-05T14:01:53.829Z,100426.16
2022-11-05T14:06:07.789Z,100430.09
2022-11-05T14:10:32.146Z,100440.59
2022-11-05T14:14:44.605Z,100448.22
2022-11-05T14:18:52.625Z,100455.91
2022-11-05T14:23:23.275Z,100460.22
2022-11-05T14:27:25.113Z,100459.84
2022-11-05T14:31:54.481Z,100466.72
2022-11-05T14:36:20.825Z,100466.78
2022-11-05T14:40:22.592Z,100470.06
2022-11-05T14:44:26.305Z,100476.78
2022-11-05T14:48:37.549Z,100481.25
2022-11-05T14:52:50.015Z,100479.22
2022-11-05T14:56:56.728Z,100483.41
2022-11-05T15:01:01.453Z,100484.28
2022-11-05T15:05:31.234Z,100502.31
2022-11-05T15:09:52.909Z,100497.16
2022-11-05T15:13:54.790Z,100500.72
2022-11-05T15:18:23.338Z,100509.44
2022-11-05T15:22:30.783Z,100510.06
2022-11-05T15:26:50.439Z,100515.75
2022-11-05T15:31:19.544Z,100522.31
2022-11-05T15:35:29.566Z,100532.53
2022-11-05T15:39:33.131Z,100531.94
2022-11-05T15:43:35.078Z,100531.94
2022-11-05T15:47:36.805Z,100539.56
2022-11-05T15:51:38.794Z,100537.03
2022-11-05T15:55:54.571Z,100534.69
2022-11-05T15:59:56.435Z,100532.47
2022-11-05T16:04:15.686Z,100534.81
2022-11-05T16:08:27.778Z,100543.72
2022-11-05T16:12:34.987Z,100546.06
2022-11-05T16:16:37.020Z,100552.50
2022-11-05T16:20:38.842Z,100556.09
2022-11-05T16:24:41.029Z,100555.03
2022-11-05T16:28:50.351Z,100565.66
2022-11-05T16:32:53.010Z,100567.38
2022-11-05T16:36:57.071Z,100573.69
2022-11-05T16:41:00.340Z,100572.06
2022-11-05T16:45:02.006Z,100570.38
2022-11-05T16:49:04.185Z,100593.94
2022-11-05T16:53:06.272Z,100599.19
2022-11-05T16:57:23.070Z,100600.94
2022-11-05T17:01:25.233Z,100609.34
2022-11-05T17:05:30.422Z,100613.94
2022-11-05T17:09:32.047Z,100618.53
2022-11-05T17:13:34.067Z,100618.38
2022-11-05T17:17:35.705Z,100626.47
2022-11-05T17:21:37.634Z,100631.63
2022-11-05T17:25:40.915Z,100642.03
2022-11-05T17:29:43.037Z,100642.19
2022-11-05T17:33:44.747Z,100642.88
2022-11-05T17:37:46.907Z,100647.56
2022-11-05T17:41:48.896Z,100648.00
2022-11-05T17:45:52.319Z,100659.94
2022-11-05T17:49:53.974Z,100660.44
2022-11-05T17:53:56.053Z,100658.03
2022-11-05T17:57:57.709Z,100664.13
2022-11-05T18:01:59.923Z,100660.34
2022-11-05T18:06:02.958Z,100665.59
2022-11-05T18:10:05.999Z,100671.19
2022-11-05T18:14:08.510Z,100677.84
2022-11-05T18:18:10.621Z,100677.16
2022-11-05T18:22:12.487Z,100678.44
2022-11-05T18:26:16.516Z,100685.38
2022-11-05T18:30:18.799Z,100678.81
2022-11-05T18:34:20.707Z,100685.84
2022-11-05T18:38:22.581Z,100683.06
2022-11-05T18:42:25.382Z,100686.53
2022-11-05T18:46:55.848Z,100681.22
2022-11-05T18:50:49.974Z,100692.66
2022-11-05T18:54:51.775Z,100689.00
2022-11-05T18:59:14.743Z,100694.53
2022-11-05T19:03:15.797Z,100695.13
2022-11-05T19:07:19.219Z,100700.97
2022-11-05T19:11:23.333Z,100702.75
2022-11-05T19:15:25.275Z,100706.31
2022-11-05T19:19:27.591Z,100706.88
2022-11-05T19:23:30.591Z,100702.00
2022-11-05T19:27:32.420Z,100704.41
2022-11-05T19:31:35.580Z,100705.16
2022-11-05T19:35:41.545Z,100714.97
2022-11-05T19:39:43.931Z,100728.69
2022-11-05T19:43:45.903Z,100738.09
2022-11-05T19:47:47.927Z,100730.38
2022-11-05T19:51:49.749Z,100734.69
2022-11-05T19:55:51.867Z,100731.22
2022-11-05T19:59:53.509Z,100728.97
2022-11-05T20:03:57.735Z,100728.84
2022-11-05T20:07:59.840Z,100735.63
2022-11-05T20:12:01.748Z,100748.09
2022-11-05T20:16:04.056Z,100746.88
2022-11-05T20:20:07.997Z,100742.78
2022-11-05T20:24:11.746Z,100755.72
2022-11-05T20:28:14.070Z,100761.13
2022-11-05T20:32:15.929Z,100750.41
2022-11-05T20:36:23.302Z,100756.28
2022-11-05T20:40:25.029Z,100778.78
2022-11-05T20:44:27.051Z,100776.69
2022-11-05T20:48:33.021Z,100779.31
2022-11-05T20:52:34.984Z,100781.25
2022-11-05T20:56:36.880Z,100781.25
2022-11-05T21:00:39.544Z,100787.97
2022-11-05T21:04:41.223Z,100789.19
2022-11-05T21:08:43.702Z,100796.91
2022-11-05T21:12:45.369Z,100791.59
2022-11-05T21:16:47.329Z,100783.44
2022-11-05T21:20:49.486Z,100789.50
2022-11-05T21:24:51.407Z,100781.88
2022-11-05T21:28:53.039Z,100776.63
2022-11-05T21:32:55.080Z,100774.09
2022-11-05T21:36:56.749Z,100779.97
2022-11-05T21:41:02.975Z,100792.13
2022-11-05T21:45:05.485Z,100789.28
2022-11-05T21:49:07.477Z,100797.38
2022-11-05T21:53:32.424Z,100785.53
2022-11-05T21:57:52.903Z,100788.16
2022-11-05T22:02:01.371Z,100787.16
2022-11-05T22:06:03.893Z,100788.38
2022-11-05T22:10:13.295Z,100787.91
2022-11-05T22:14:17.918Z,100786.66
2022-11-05T22:18:19.554Z,100796.16
2022-11-05T22:22:21.842Z,100790.00
2022-11-05T22:26:23.530Z,100796.84
2022-11-05T22:30:27.136Z,100795.09
2022-11-05T22:34:28.832Z,100804.25
2022-11-05T22:38:31.306Z,100811.75
2022-11-05T22:42:33.037Z,100818.19
2022-11-05T22:46:35.207Z,100822.53
2022-11-05T22:50:36.807Z,100812.34
2022-11-05T22:54:39.573Z,100809.44
2022-11-05T22:58:42.182Z,100808.28
2022-11-05T23:02:44.331Z,100812.72
2022-11-05T23:07:04.786Z,100810.84
2022-11-05T23:11:34.003Z,100809.44
2022-11-05T23:15:54.434Z,100814.88
2022-11-05T23:20:14.652Z,100814.06
2022-11-05T23:24:16.436Z,100817.38
2022-11-05T23:28:21.231Z,100815.81
2022-11-05T23:32:25.501Z,100816.53
2022-11-05T23:36:46.443Z,100815.13
2022-11-05T23:41:06.862Z,100811.72
2022-11-05T23:45:27.773Z,100818.03
2022-11-05T23:49:29.577Z,100825.53
2022-11-05T23:53:33.637Z,100819.88
2022-11-05T23:57:35.548Z,100828.03
